Terminal Aerodrome Forecast
Issued by NWS

Home | Current Version | Previous Version | Text Only | Print | Product List | Glossary On
Versions: 1 2 3 4 5 6 7 8 9 10 11 12
000
FTPA31 PHFO 181130
TAFHKO
TAF
PHKO 181130Z 1812/1912 10004KT P6SM SCT030 BKN060
     FM182200 25008KT P6SM VCSH FEW035 BKN060
     FM190400 VRB06KT P6SM VCSH SCT030 BKN060=

USA.gov is the U.S. government's official web portal to all federal, state and local government web resources and services.